Time;durP1;ratioP1;P1;durP2;ratioP2;P2;SDS_P1;SDS_P2;PMS_P1;PMS_P2;Temp;Humidity;BMP_temperature;BMP_pressure;BME280_temperature;BME280_humidity;BME280_pressure;Samples;Min_cycle;Max_cycle;Signal;HPM_P1;HPM_P2
2022/02/20 00:02:04;;;;;;;5.22;3.78;;;7.50;59.80;;;;;;5092756;28;20093;-62
2022/02/20 00:04:30;;;;;;;6.43;3.83;;;7.50;59.70;;;;;;5091222;28;20025;-62
2022/02/20 00:06:56;;;;;;;6.07;3.83;;;7.40;59.60;;;;;;5075142;28;20100;-62
2022/02/20 00:09:22;;;;;;;5.82;3.63;;;7.40;59.40;;;;;;5076071;28;20021;-62
2022/02/20 00:11:47;;;;;;;5.50;3.70;;;7.40;59.50;;;;;;5087999;28;20032;-62
2022/02/20 00:14:13;;;;;;;4.15;3.10;;;7.40;59.50;;;;;;5090400;28;20072;-62
2022/02/20 00:16:39;;;;;;;6.70;3.83;;;7.40;59.30;;;;;;5074026;28;20024;-62
2022/02/20 00:19:05;;;;;;;6.25;3.55;;;7.40;59.10;;;;;;5086431;28;20111;-62
2022/02/20 00:21:30;;;;;;;4.50;3.05;;;7.40;59.10;;;;;;5074403;28;20515;-62
2022/02/20 00:23:56;;;;;;;4.93;3.17;;;7.40;59.10;;;;;;5074334;28;20047;-62
2022/02/20 00:26:22;;;;;;;6.00;3.10;;;7.40;59.00;;;;;;5074246;28;20095;-62
2022/02/20 00:28:47;;;;;;;6.22;3.38;;;7.40;59.00;;;;;;5073710;28;20021;-62
2022/02/20 00:31:13;;;;;;;4.07;3.20;;;7.40;58.90;;;;;;5073923;28;20021;-62
2022/02/20 00:33:39;;;;;;;4.55;3.30;;;7.40;58.90;;;;;;5074592;28;20032;-62
2022/02/20 00:36:04;;;;;;;3.75;2.95;;;7.40;58.90;;;;;;5048981;28;1207697;-62
2022/02/20 00:38:30;;;;;;;3.40;2.88;;;7.30;58.70;;;;;;5095657;28;20036;-62
2022/02/20 00:40:56;;;;;;;4.30;3.20;;;7.30;58.70;;;;;;5095438;28;20544;-62
2022/02/20 00:43:22;;;;;;;6.60;3.55;;;7.40;58.70;;;;;;5095794;28;20418;-62
2022/02/20 00:45:47;;;;;;;5.38;3.63;;;7.30;58.60;;;;;;5095560;28;20020;-62
2022/02/20 00:48:17;;;;;;;4.60;3.70;;;7.30;58.50;;;;;;5094848;28;20020;-62
2022/02/20 00:50:43;;;;;;;5.65;3.42;;;7.30;58.50;;;;;;5077323;28;20029;-62
2022/02/20 00:53:09;;;;;;;5.50;3.30;;;7.30;58.40;;;;;;5074709;28;20093;-62
2022/02/20 00:55:34;;;;;;;5.10;3.33;;;7.30;58.30;;;;;;5081031;28;20024;-62
2022/02/20 00:58:02;;;;;;;3.95;3.13;;;7.30;58.30;;;;;;5075194;28;20034;-62
2022/02/20 01:00:27;;;;;;;6.15;3.15;;;7.30;58.40;;;;;;5075081;28;20476;-62
2022/02/20 01:02:53;;;;;;;4.03;2.92;;;7.30;58.40;;;;;;5074802;28;20075;-62
2022/02/20 01:05:19;;;;;;;5.50;3.35;;;7.30;58.30;;;;;;5083679;28;20031;-62
2022/02/20 01:07:45;;;;;;;3.65;2.80;;;7.30;58.20;;;;;;5088020;28;20490;-62
2022/02/20 01:10:13;;;;;;;4.20;2.90;;;7.30;58.30;;;;;;5094821;28;20016;-62
2022/02/20 01:12:39;;;;;;;5.18;3.10;;;7.20;58.20;;;;;;5081018;28;20071;-62
2022/02/20 01:15:06;;;;;;;4.28;2.80;;;7.20;58.10;;;;;;5094847;28;20102;-62
2022/02/20 01:17:32;;;;;;;4.72;2.90;;;7.20;58.20;;;;;;5076290;28;20039;-62
2022/02/20 01:19:58;;;;;;;4.60;3.00;;;7.20;58.10;;;;;;5094673;28;20111;-62
2022/02/20 01:22:24;;;;;;;4.30;2.67;;;7.20;58.20;;;;;;5093756;28;20444;-62
2022/02/20 01:24:50;;;;;;;3.53;2.60;;;7.20;58.20;;;;;;5074225;28;20028;-62
2022/02/20 01:27:16;;;;;;;4.88;2.80;;;7.20;58.10;;;;;;5087172;28;20046;-62
2022/02/20 01:29:41;;;;;;;4.05;2.90;;;7.20;58.20;;;;;;5074227;28;20024;-62
2022/02/20 01:32:07;;;;;;;3.45;2.80;;;7.20;58.10;;;;;;5089472;28;20020;-62
2022/02/20 01:34:33;;;;;;;4.80;3.03;;;7.20;58.10;;;;;;5086413;28;20052;-62
2022/02/20 01:36:58;;;;;;;3.42;2.95;;;7.20;58.00;;;;;;5074132;28;20043;-62
2022/02/20 01:39:24;;;;;;;4.78;3.28;;;7.10;57.90;;;;;;5074675;28;20092;-62
2022/02/20 01:41:53;;;;;;;5.30;3.38;;;7.10;58.00;;;;;;5074231;28;20024;-62
2022/02/20 01:44:20;;;;;;;4.65;3.05;;;7.10;58.00;;;;;;5074446;28;20032;-62
2022/02/20 01:46:47;;;;;;;4.45;2.85;;;7.10;58.00;;;;;;5074022;28;20028;-62
2022/02/20 01:49:14;;;;;;;3.40;3.10;;;7.10;57.90;;;;;;5091645;28;20077;-62
2022/02/20 01:51:39;;;;;;;3.83;3.13;;;7.10;57.80;;;;;;5093089;28;20024;-62
2022/02/20 01:54:05;;;;;;;6.25;3.00;;;7.10;57.80;;;;;;5094541;28;20024;-62
2022/02/20 01:56:31;;;;;;;6.10;3.42;;;7.10;57.80;;;;;;5082863;28;20484;-62
2022/02/20 01:58:56;;;;;;;4.53;3.20;;;7.10;57.80;;;;;;5073949;28;20098;-62
2022/02/20 02:01:22;;;;;;;4.25;3.25;;;7.10;57.90;;;;;;5084742;28;20093;-62
2022/02/20 02:03:47;;;;;;;6.22;3.50;;;7.10;58.00;;;;;;5089608;28;20032;-62
2022/02/20 02:06:13;;;;;;;4.78;3.25;;;7.00;58.00;;;;;;5083187;28;20400;-62
2022/02/20 02:08:39;;;;;;;5.38;3.22;;;7.00;58.10;;;;;;5082639;28;20032;-62
2022/02/20 02:11:05;;;;;;;5.05;3.38;;;7.00;58.20;;;;;;5088583;28;20472;-62
2022/02/20 02:13:31;;;;;;;5.28;3.50;;;7.00;58.40;;;;;;5087380;28;20016;-62
2022/02/20 02:15:56;;;;;;;7.18;3.38;;;6.90;58.40;;;;;;5073356;28;20028;-62
2022/02/20 02:18:22;;;;;;;4.25;3.38;;;6.90;58.50;;;;;;5083151;28;20415;-62
2022/02/20 02:20:48;;;;;;;6.38;3.30;;;6.90;58.60;;;;;;5073509;28;20538;-62
2022/02/20 02:23:18;;;;;;;5.00;3.08;;;6.90;58.70;;;;;;5073367;28;20082;-62
2022/02/20 02:25:47;;;;;;;5.10;3.30;;;6.90;58.70;;;;;;5074356;28;20043;-62
2022/02/20 02:28:13;;;;;;;3.92;3.15;;;6.90;58.70;;;;;;5093424;28;20027;-62
2022/02/20 02:30:38;;;;;;;7.18;3.78;;;6.90;58.80;;;;;;5089935;28;20033;-62
2022/02/20 02:33:04;;;;;;;6.15;3.50;;;6.90;58.90;;;;;;5080988;28;20024;-62
2022/02/20 02:35:30;;;;;;;4.85;3.20;;;6.80;58.80;;;;;;5081594;28;20519;-62
2022/02/20 02:37:57;;;;;;;4.45;2.97;;;6.80;58.90;;;;;;5093433;28;20421;-62
2022/02/20 02:40:23;;;;;;;5.22;3.00;;;6.80;59.00;;;;;;5093435;28;20476;-62
2022/02/20 02:42:48;;;;;;;4.40;3.65;;;6.80;58.90;;;;;;5093132;28;20028;-62
2022/02/20 02:45:15;;;;;;;5.25;3.30;;;6.80;59.70;;;;;;5092862;28;20388;-62
2022/02/20 02:47:47;;;;;;;5.28;3.58;;;6.80;59.10;;;;;;5089320;28;20020;-62
2022/02/20 02:50:13;;;;;;;3.92;3.10;;;6.80;59.20;;;;;;5072683;28;20094;-62
2022/02/20 02:52:38;;;;;;;5.53;3.50;;;6.80;59.40;;;;;;5072817;28;20025;-62
2022/02/20 02:55:05;;;;;;;6.10;3.97;;;6.80;59.50;;;;;;5086087;28;20012;-62
2022/02/20 02:57:31;;;;;;;7.18;3.28;;;6.70;59.50;;;;;;5072689;28;20546;-62
2022/02/20 02:59:59;;;;;;;5.75;3.45;;;6.70;59.60;;;;;;5072832;28;20404;-62
2022/02/20 03:02:24;;;;;;;6.55;3.90;;;6.70;59.60;;;;;;5077783;28;20028;-62
2022/02/20 03:04:50;;;;;;;5.53;3.42;;;6.70;59.70;;;;;;5085145;28;20033;-62
2022/02/20 03:07:15;;;;;;;6.03;3.50;;;6.70;59.70;;;;;;5074619;28;20016;-62
2022/02/20 03:09:41;;;;;;;5.20;3.63;;;6.70;59.80;;;;;;5080205;28;20419;-62
2022/02/20 03:12:08;;;;;;;5.82;3.58;;;6.70;59.70;;;;;;5075966;28;20019;-62
2022/02/20 03:14:34;;;;;;;5.32;3.60;;;6.70;59.80;;;;;;5091345;28;20032;-62
2022/02/20 03:17:00;;;;;;;4.47;3.30;;;6.70;59.90;;;;;;5090677;28;20027;-62
2022/02/20 03:19:27;;;;;;;4.32;3.30;;;6.70;60.00;;;;;;5082517;28;20024;-62
2022/02/20 03:21:52;;;;;;;9.23;3.75;;;6.70;60.00;;;;;;5072722;28;20070;-62
2022/02/20 03:24:18;;;;;;;5.13;3.33;;;6.60;60.00;;;;;;5072152;28;20520;-62
2022/02/20 03:26:44;;;;;;;8.02;3.70;;;6.60;60.00;;;;;;5072175;28;20495;-62
2022/02/20 03:29:09;;;;;;;7.53;4.07;;;6.60;60.10;;;;;;5071896;28;20016;-62
2022/02/20 03:31:35;;;;;;;5.40;3.60;;;6.60;60.00;;;;;;5072286;28;20021;-62
2022/02/20 03:34:01;;;;;;;4.32;3.05;;;6.60;60.00;;;;;;5091687;28;20379;-62
2022/02/20 03:36:27;;;;;;;7.05;3.38;;;6.60;60.00;;;;;;5077388;28;20025;-62
2022/02/20 03:38:52;;;;;;;4.82;2.92;;;6.60;60.00;;;;;;5087419;28;20028;-62
2022/02/20 03:41:18;;;;;;;6.60;3.30;;;6.60;60.00;;;;;;5072349;28;20516;-62
2022/02/20 03:43:44;;;;;;;6.88;3.58;;;6.60;60.10;;;;;;5071977;28;20087;-62
2022/02/20 03:46:10;;;;;;;6.88;3.70;;;6.50;60.10;;;;;;5054167;28;20112;-62
2022/02/20 03:48:35;;;;;;;5.97;3.42;;;6.60;60.20;;;;;;5071912;28;20112;-62
2022/02/20 03:51:02;;;;;;;5.35;3.80;;;6.50;60.20;;;;;;5072222;28;20028;-62
2022/02/20 03:53:28;;;;;;;4.18;3.15;;;6.60;60.30;;;;;;5077458;28;20028;-62
2022/02/20 03:55:54;;;;;;;6.80;3.40;;;6.60;60.30;;;;;;5086780;28;20591;-62
2022/02/20 03:58:19;;;;;;;6.03;3.70;;;6.50;60.30;;;;;;5072051;28;20028;-62
2022/02/20 04:00:46;;;;;;;4.10;2.70;;;6.50;60.40;;;;;;5071878;28;20110;-62
2022/02/20 04:03:12;;;;;;;4.15;2.90;;;6.50;60.40;;;;;;5088047;28;20483;-62
2022/02/20 04:05:38;;;;;;;4.18;2.90;;;6.50;60.50;;;;;;5085855;28;20059;-62
2022/02/20 04:08:06;;;;;;;4.20;3.08;;;6.50;60.60;;;;;;5082966;28;20476;-62
2022/02/20 04:10:32;;;;;;;3.58;2.80;;;6.50;60.60;;;;;;5073713;28;20411;-62
2022/02/20 04:12:57;;;;;;;5.78;2.95;;;6.50;60.70;;;;;;5085876;28;20016;-62
2022/02/20 04:15:23;;;;;;;7.55;3.70;;;6.50;60.80;;;;;;5077505;28;20055;-62
2022/02/20 04:17:49;;;;;;;4.25;3.20;;;6.40;60.50;;;;;;5092133;28;20047;-62
2022/02/20 04:20:17;;;;;;;5.30;3.30;;;6.40;60.60;;;;;;5092029;28;20074;-62
2022/02/20 04:22:44;;;;;;;5.00;3.20;;;6.50;60.70;;;;;;5091728;28;20110;-62
2022/02/20 04:25:11;;;;;;;4.53;3.05;;;6.40;60.70;;;;;;5077710;28;20032;-62
2022/02/20 04:27:38;;;;;;;5.10;2.95;;;6.40;60.70;;;;;;5080002;28;20375;-62
2022/02/20 04:30:05;;;;;;;5.30;3.10;;;6.40;60.60;;;;;;5088666;28;20024;-62
2022/02/20 04:32:31;;;;;;;4.80;3.10;;;6.50;60.70;;;;;;5085403;28;20024;-62
2022/02/20 04:34:57;;;;;;;4.22;3.00;;;6.40;60.60;;;;;;5081421;28;20044;-62
2022/02/20 04:37:23;;;;;;;4.28;2.97;;;6.40;60.80;;;;;;5075248;28;20024;-62
2022/02/20 04:39:49;;;;;;;4.78;2.95;;;6.40;60.60;;;;;;5076227;28;20443;-62
2022/02/20 04:42:14;;;;;;;4.88;3.28;;;6.40;60.80;;;;;;5095591;28;20099;-62
2022/02/20 04:44:40;;;;;;;4.10;3.25;;;6.40;60.80;;;;;;5080638;28;20100;-62
2022/02/20 04:47:06;;;;;;;6.90;3.30;;;6.40;60.90;;;;;;5075721;28;20052;-62
2022/02/20 04:49:31;;;;;;;5.47;3.33;;;6.40;60.80;;;;;;5075148;28;20029;-62
2022/02/20 04:51:57;;;;;;;6.18;3.00;;;6.40;61.40;;;;;;5075068;28;20020;-62
2022/02/20 04:54:23;;;;;;;4.65;2.90;;;6.40;60.70;;;;;;5075297;28;20063;-62
2022/02/20 04:56:48;;;;;;;5.47;3.35;;;6.40;60.80;;;;;;5087970;28;20059;-62
2022/02/20 04:59:14;;;;;;;6.00;3.20;;;6.40;60.70;;;;;;5074911;28;20472;-62
2022/02/20 05:01:40;;;;;;;5.18;3.17;;;6.40;60.80;;;;;;5077640;28;20158;-62
2022/02/20 05:04:08;;;;;;;5.95;3.65;;;6.40;60.70;;;;;;5088037;28;20048;-62
2022/02/20 05:06:34;;;;;;;4.28;3.20;;;6.50;60.80;;;;;;5086508;28;20430;-62
2022/02/20 05:09:00;;;;;;;6.72;3.25;;;6.40;60.70;;;;;;5076224;28;20099;-62
2022/02/20 05:11:27;;;;;;;4.25;3.38;;;6.40;60.80;;;;;;5084151;28;20433;-62
2022/02/20 05:13:58;;;;;;;6.07;3.70;;;6.40;60.80;;;;;;5076735;28;20031;-62
2022/02/20 05:16:25;;;;;;;4.75;3.30;;;6.50;60.90;;;;;;5074537;28;20063;-62
2022/02/20 05:18:51;;;;;;;5.38;3.50;;;6.40;60.90;;;;;;5074338;28;20104;-62
2022/02/20 05:21:18;;;;;;;5.88;3.38;;;6.50;61.10;;;;;;5075352;28;20021;-62
2022/02/20 05:23:44;;;;;;;6.75;3.75;;;6.50;61.10;;;;;;5074449;28;20024;-62
2022/02/20 05:26:12;;;;;;;5.63;3.50;;;6.50;60.90;;;;;;5076090;28;20088;-62
2022/02/20 05:28:38;;;;;;;5.40;3.63;;;6.50;61.10;;;;;;5094217;28;20102;-62
2022/02/20 05:31:04;;;;;;;5.45;3.45;;;6.60;61.10;;;;;;5094455;28;20078;-62
2022/02/20 05:33:30;;;;;;;7.88;3.80;;;6.60;61.20;;;;;;5091978;28;20032;-62
2022/02/20 05:35:55;;;;;;;5.68;3.58;;;6.70;61.10;;;;;;5085185;28;20052;-62
2022/02/20 05:38:21;;;;;;;5.47;3.50;;;6.70;61.10;;;;;;5084656;28;20025;-62
2022/02/20 05:40:47;;;;;;;7.18;4.05;;;6.80;61.20;;;;;;5073374;28;20025;-62
2022/02/20 05:43:13;;;;;;;6.13;3.97;;;6.80;61.00;;;;;;5073845;28;20082;-62
2022/02/20 05:45:39;;;;;;;5.45;3.88;;;6.90;60.90;;;;;;5073939;28;20032;-62
2022/02/20 05:48:05;;;;;;;6.00;4.13;;;7.00;60.90;;;;;;5073925;28;20468;-62
2022/02/20 05:50:31;;;;;;;6.13;3.95;;;7.10;60.80;;;;;;5074096;28;20031;-62
2022/02/20 05:52:57;;;;;;;7.97;4.28;;;7.20;60.60;;;;;;5087873;28;20027;-62
2022/02/20 05:55:23;;;;;;;5.05;3.72;;;7.20;60.60;;;;;;5081922;28;20031;-62
2022/02/20 05:57:54;;;;;;;7.57;4.13;;;7.30;60.40;;;;;;5079380;28;20025;-62
2022/02/20 06:00:25;;;;;;;7.97;3.92;;;7.40;60.50;;;;;;5073957;28;20465;-62
2022/02/20 06:02:51;;;;;;;6.32;4.15;;;7.50;60.50;;;;;;5088935;28;20084;-62
2022/02/20 06:05:17;;;;;;;6.22;4.20;;;7.50;60.40;;;;;;5093151;28;20074;-62
2022/02/20 06:07:43;;;;;;;7.93;4.20;;;7.60;60.40;;;;;;5075310;28;20021;-62
2022/02/20 06:10:09;;;;;;;7.00;4.70;;;7.70;60.10;;;;;;5073896;28;20024;-62
2022/02/20 06:12:36;;;;;;;7.13;4.32;;;7.70;60.20;;;;;;5079046;28;20023;-62
2022/02/20 06:15:02;;;;;;;8.15;4.63;;;7.80;60.30;;;;;;5074927;28;20033;-62
2022/02/20 06:17:28;;;;;;;6.53;4.10;;;7.90;60.20;;;;;;5093579;28;20032;-62
2022/02/20 06:19:53;;;;;;;6.03;4.40;;;8.00;60.00;;;;;;5093766;28;20055;-62
2022/02/20 06:22:19;;;;;;;5.95;4.70;;;8.10;60.00;;;;;;5093558;28;20189;-62
2022/02/20 06:24:45;;;;;;;8.88;4.78;;;8.20;59.70;;;;;;5093302;28;20031;-62
2022/02/20 06:27:11;;;;;;;7.20;4.95;;;8.30;59.80;;;;;;5093580;28;20102;-62
2022/02/20 06:29:37;;;;;;;7.82;5.32;;;8.30;59.40;;;;;;5082068;28;20044;-62
2022/02/20 06:32:04;;;;;;;8.20;4.82;;;8.40;59.40;;;;;;5078531;28;20054;-62
2022/02/20 06:34:30;;;;;;;10.00;5.03;;;8.50;59.30;;;;;;5087870;28;20048;-62
2022/02/20 06:36:56;;;;;;;7.35;5.03;;;8.60;59.10;;;;;;5073056;28;20024;-62
2022/02/20 06:39:21;;;;;;;10.23;4.95;;;8.60;58.90;;;;;;5072875;28;20090;-62
2022/02/20 06:41:47;;;;;;;7.88;4.38;;;8.70;59.00;;;;;;5080649;28;20513;-62
2022/02/20 06:44:13;;;;;;;7.25;4.28;;;8.70;58.70;;;;;;5088728;28;20520;-62
2022/02/20 06:46:39;;;;;;;6.35;4.53;;;8.80;58.60;;;;;;5073195;28;20074;-62
2022/02/20 06:49:07;;;;;;;6.90;4.40;;;8.90;58.40;;;;;;5072938;28;20021;-62
2022/02/20 06:51:33;;;;;;;7.03;4.28;;;9.00;58.50;;;;;;5072358;28;20035;-62
2022/02/20 06:53:59;;;;;;;7.80;4.32;;;9.10;58.50;;;;;;5072445;28;20111;-62
2022/02/20 06:56:24;;;;;;;7.93;4.10;;;9.20;58.20;;;;;;5079047;28;20109;-62
2022/02/20 06:58:50;;;;;;;4.95;3.97;;;9.20;58.00;;;;;;5072602;28;20036;-62
2022/02/20 07:01:15;;;;;;;7.25;3.97;;;9.30;57.90;;;;;;5080151;28;20073;-62
2022/02/20 07:03:41;;;;;;;7.30;4.30;;;9.30;57.40;;;;;;5081253;28;20013;-62
2022/02/20 07:06:08;;;;;;;5.25;3.45;;;9.30;57.50;;;;;;5092655;28;20021;-62
2022/02/20 07:08:34;;;;;;;6.75;3.50;;;9.30;57.30;;;;;;5079126;28;20070;-62
2022/02/20 07:10:59;;;;;;;5.28;3.53;;;9.20;57.30;;;;;;5084759;28;20016;-62
2022/02/20 07:13:25;;;;;;;5.03;3.50;;;9.10;57.50;;;;;;5092927;28;20028;-62
2022/02/20 07:15:51;;;;;;;7.07;3.38;;;9.10;57.50;;;;;;5078771;28;20107;-62
2022/02/20 07:18:16;;;;;;;6.10;3.95;;;9.10;57.30;;;;;;5072557;28;20024;-62
2022/02/20 07:20:43;;;;;;;5.85;3.45;;;9.00;57.30;;;;;;5073075;28;20020;-62
2022/02/20 07:23:12;;;;;;;7.78;4.15;;;8.90;57.10;;;;;;5084990;28;20123;-62
2022/02/20 07:25:37;;;;;;;5.03;3.83;;;8.90;57.60;;;;;;5089853;28;20049;-62
2022/02/20 07:28:03;;;;;;;7.38;4.30;;;8.80;57.60;;;;;;5086462;28;20680;-62
2022/02/20 07:30:29;;;;;;;6.55;4.18;;;8.80;57.50;;;;;;5070328;28;20021;-62
2022/02/20 07:32:56;;;;;;;7.32;4.35;;;8.80;57.50;;;;;;5088395;28;20020;-62
2022/02/20 07:35:22;;;;;;;6.25;3.63;;;8.80;57.40;;;;;;5081381;28;20056;-62
2022/02/20 07:37:47;;;;;;;6.72;3.95;;;8.80;57.30;;;;;;5079998;28;20036;-62
2022/02/20 07:40:13;;;;;;;7.28;3.63;;;8.80;57.50;;;;;;5092262;28;20483;-62
2022/02/20 07:42:39;;;;;;;5.90;3.50;;;8.70;57.60;;;;;;5088402;28;20062;-62
2022/02/20 07:45:06;;;;;;;6.80;4.25;;;8.70;57.60;;;;;;5079433;28;20034;-62
2022/02/20 07:47:31;;;;;;;4.43;3.28;;;8.60;57.60;;;;;;5083500;28;20032;-62
2022/02/20 07:49:57;;;;;;;6.45;3.75;;;8.60;57.70;;;;;;5077309;28;20450;-62
2022/02/20 07:52:25;;;;;;;7.45;4.72;;;8.60;57.60;;;;;;5079374;28;20401;-62
2022/02/20 07:54:51;;;;;;;5.85;2.90;;;8.60;57.70;;;;;;5076130;28;20086;-62
2022/02/20 07:57:16;;;;;;;5.18;3.70;;;8.50;57.70;;;;;;5091751;28;20051;-62
2022/02/20 07:59:42;;;;;;;3.70;2.90;;;8.50;57.70;;;;;;5087963;28;20020;-62
2022/02/20 08:02:08;;;;;;;7.05;3.10;;;8.40;57.60;;;;;;5081006;28;20138;-62
2022/02/20 08:04:34;;;;;;;5.50;3.47;;;8.40;57.50;;;;;;5083131;28;20029;-62
2022/02/20 08:07:02;;;;;;;6.93;3.28;;;8.30;57.80;;;;;;5092048;28;20028;-62
2022/02/20 08:09:27;;;;;;;4.50;3.30;;;8.30;58.10;;;;;;5085728;28;20021;-62
2022/02/20 08:11:53;;;;;;;5.25;3.40;;;8.30;58.10;;;;;;5079156;28;20108;-62
2022/02/20 08:14:19;;;;;;;5.28;3.50;;;8.40;58.20;;;;;;5082452;28;20060;-62
2022/02/20 08:16:44;;;;;;;6.43;3.50;;;8.40;58.00;;;;;;5089581;28;20028;-62
2022/02/20 08:19:10;;;;;;;6.38;3.55;;;8.40;58.10;;;;;;5093501;28;20031;-62
2022/02/20 08:21:36;;;;;;;6.63;3.60;;;8.50;58.10;;;;;;5095371;28;20066;-62
2022/02/20 08:24:02;;;;;;;4.53;3.15;;;8.50;57.90;;;;;;5095461;28;20372;-62
2022/02/20 08:26:27;;;;;;;5.90;3.33;;;8.50;57.70;;;;;;5095304;28;20023;-62
2022/02/20 08:28:53;;;;;;;4.93;3.00;;;8.40;57.60;;;;;;5081585;28;20024;-62
2022/02/20 08:31:19;;;;;;;4.30;3.20;;;8.40;57.80;;;;;;5094304;28;20016;-62
2022/02/20 08:33:44;;;;;;;4.70;3.25;;;8.40;57.80;;;;;;5094987;28;20046;-62
2022/02/20 08:36:10;;;;;;;3.42;2.70;;;8.40;57.90;;;;;;5094876;28;20051;-62
2022/02/20 08:38:37;;;;;;;5.07;3.00;;;8.30;57.80;;;;;;5094132;28;20035;-62
2022/02/20 08:41:03;;;;;;;5.40;3.20;;;8.30;57.90;;;;;;5094172;28;20042;-62
2022/02/20 08:43:28;;;;;;;4.40;3.00;;;8.30;58.00;;;;;;5094579;28;20103;-62
2022/02/20 08:45:54;;;;;;;4.40;3.08;;;8.20;58.10;;;;;;5094569;28;20035;-62
2022/02/20 08:48:20;;;;;;;6.53;3.20;;;8.20;58.10;;;;;;5083093;28;20079;-62
2022/02/20 08:50:46;;;;;;;6.30;3.42;;;8.20;58.20;;;;;;5088887;28;20480;-62
2022/02/20 08:53:11;;;;;;;7.65;3.10;;;8.20;58.40;;;;;;5086413;28;20463;-62
2022/02/20 08:55:38;;;;;;;4.90;3.58;;;8.10;58.20;;;;;;5085705;28;20048;-62
2022/02/20 08:58:04;;;;;;;5.53;3.15;;;8.10;58.20;;;;;;5085263;28;20055;-62
2022/02/20 09:00:31;;;;;;;6.18;3.30;;;8.10;58.40;;;;;;5087891;28;20037;-62
2022/02/20 09:02:57;;;;;;;5.93;3.13;;;8.10;58.30;;;;;;5075302;28;20024;-62
2022/02/20 09:05:23;;;;;;;5.22;3.15;;;8.10;58.50;;;;;;5056583;28;20082;-62
2022/02/20 09:07:48;;;;;;;6.05;3.75;;;8.10;58.50;;;;;;5088226;28;20067;-62
2022/02/20 09:10:14;;;;;;;6.53;3.53;;;8.10;58.40;;;;;;5074655;28;20052;-62
2022/02/20 09:12:40;;;;;;;8.20;3.53;;;8.10;58.50;;;;;;5076790;28;20408;-62
2022/02/20 09:15:08;;;;;;;5.22;3.25;;;8.10;58.30;;;;;;5074176;28;20039;-62
2022/02/20 09:17:34;;;;;;;8.88;6.18;;;8.10;58.30;;;;;;5074485;28;20032;-62
2022/02/20 09:20:01;;;;;;;9.90;5.90;;;8.10;58.30;;;;;;5075049;28;20467;-62
2022/02/20 09:22:26;;;;;;;6.22;3.88;;;8.20;58.50;;;;;;5074351;28;20036;-62
2022/02/20 09:24:54;;;;;;;6.38;3.70;;;8.20;58.40;;;;;;5074575;28;20062;-62
2022/02/20 09:27:21;;;;;;;4.78;3.22;;;8.20;58.20;;;;;;5074537;28;20028;-62
2022/02/20 09:29:46;;;;;;;5.65;3.42;;;8.30;58.10;;;;;;5074143;28;20020;-62
2022/02/20 09:32:12;;;;;;;6.10;3.45;;;8.30;58.10;;;;;;5074075;28;20021;-62
2022/02/20 09:34:38;;;;;;;6.93;4.03;;;8.30;58.10;;;;;;5074014;28;20048;-62
2022/02/20 09:37:04;;;;;;;7.53;4.38;;;8.30;58.10;;;;;;5074655;28;20098;-62
2022/02/20 09:39:30;;;;;;;6.95;4.03;;;8.40;58.20;;;;;;5075873;28;20063;-62
2022/02/20 09:41:58;;;;;;;6.65;3.97;;;8.40;58.10;;;;;;5094033;28;20444;-62
2022/02/20 09:44:23;;;;;;;5.05;3.30;;;8.40;57.90;;;;;;5085767;28;20024;-62
2022/02/20 09:46:50;;;;;;;4.57;3.20;;;8.50;58.00;;;;;;5074004;28;20070;-62
2022/02/20 09:49:16;;;;;;;5.72;3.47;;;8.50;58.10;;;;;;5088994;28;20185;-62
2022/02/20 09:51:42;;;;;;;4.47;3.00;;;8.50;57.90;;;;;;5094308;28;20116;-62
2022/02/20 09:54:07;;;;;;;4.05;2.90;;;8.50;57.90;;;;;;5078353;28;20031;-62
2022/02/20 09:56:33;;;;;;;4.18;2.67;;;8.60;57.70;;;;;;5090188;28;20024;-62
2022/02/20 09:58:59;;;;;;;3.25;2.60;;;8.50;57.70;;;;;;5075395;28;20032;-62
2022/02/20 10:01:25;;;;;;;4.10;3.20;;;8.50;57.70;;;;;;5094297;28;20035;-62
2022/02/20 10:03:51;;;;;;;5.97;3.45;;;8.50;57.70;;;;;;5093818;28;20020;-62
2022/02/20 10:06:19;;;;;;;6.32;3.20;;;8.50;57.90;;;;;;5092779;28;20031;-62
2022/02/20 10:08:48;;;;;;;5.15;3.30;;;8.50;57.90;;;;;;5073323;28;20032;-62
2022/02/20 10:11:24;;;;;;;4.63;3.00;;;8.60;57.70;;;;;;5082902;28;20036;-62
2022/02/20 10:13:52;;;;;;;6.25;3.50;;;8.60;57.30;;;;;;5077036;28;20017;-62
2022/02/20 10:16:29;;;;;;;4.78;3.30;;;8.60;57.20;;;;;;5073908;28;20032;-62
2022/02/20 10:18:57;;;;;;;5.18;3.42;;;8.60;57.30;;;;;;5073339;28;20039;-62
2022/02/20 10:21:28;;;;;;;6.13;3.60;;;8.60;57.10;;;;;;5073200;28;20443;-62
2022/02/20 10:23:56;;;;;;;7.57;3.53;;;8.50;57.10;;;;;;5073267;28;20481;-62
2022/02/20 10:26:25;;;;;;;4.72;3.30;;;8.50;57.20;;;;;;5080778;28;20063;-62
2022/02/20 10:29:18;;;;;;;6.22;3.53;;;8.50;57.30;;;;;;5073919;28;20025;-62
2022/02/20 10:31:54;;;;;;;5.75;3.40;;;8.60;57.20;;;;;;5085105;28;20028;-62
2022/02/20 10:34:25;;;;;;;4.82;3.60;;;8.60;57.40;;;;;;5089212;28;20067;-62
2022/02/20 10:37:02;;;;;;;7.85;3.72;;;8.60;57.40;;;;;;5077471;28;20110;-62
2022/02/20 10:39:32;;;;;;;5.90;3.42;;;8.70;57.30;;;;;;5085111;28;20024;-62
2022/02/20 10:42:13;;;;;;;5.28;3.50;;;8.70;56.80;;;;;;5091900;28;20115;-62
2022/02/20 10:44:49;;;;;;;4.82;3.22;;;8.70;56.80;;;;;;5078283;28;20045;-62
2022/02/20 10:47:15;;;;;;;5.50;2.97;;;8.80;56.80;;;;;;5092826;28;20028;-62
2022/02/20 10:49:41;;;;;;;8.73;3.72;;;8.80;56.60;;;;;;5090002;28;20020;-62
2022/02/20 10:52:24;;;;;;;4.78;3.17;;;8.80;56.70;;;;;;5075945;28;20024;-62
2022/02/20 10:55:08;;;;;;;4.03;2.85;;;8.80;56.70;;;;;;5092309;28;20032;-62
2022/02/20 10:57:35;;;;;;;4.82;3.00;;;8.80;56.60;;;;;;5087996;28;20115;-62
2022/02/20 11:00:19;;;;;;;5.35;3.22;;;8.80;56.60;;;;;;5089736;28;20046;-62
2022/02/20 11:02:45;;;;;;;3.50;2.92;;;8.80;56.40;;;;;;5078048;28;20115;-62
2022/02/20 11:05:12;;;;;;;5.75;3.22;;;8.80;56.30;;;;;;5074629;28;20047;-62
2022/02/20 11:07:39;;;;;;;4.00;2.78;;;8.80;56.50;;;;;;5085843;28;20032;-62
2022/02/20 11:10:10;;;;;;;5.68;2.90;;;8.80;56.30;;;;;;5092078;28;20020;-62
2022/02/20 11:12:38;;;;;;;2.90;2.47;;;8.80;56.10;;;;;;5090293;28;20024;-62
2022/02/20 11:15:05;;;;;;;4.10;2.88;;;8.80;55.80;;;;;;5092402;28;20110;-62
2022/02/20 11:17:31;;;;;;;3.38;2.60;;;8.90;55.40;;;;;;5089979;28;20056;-62
2022/02/20 11:19:58;;;;;;;3.15;2.72;;;8.90;55.20;;;;;;5088248;28;20105;-62
2022/02/20 11:22:32;;;;;;;4.75;2.65;;;8.90;55.00;;;;;;5092403;28;20027;-62
2022/02/20 11:24:59;;;;;;;4.68;2.97;;;8.90;55.00;;;;;;5090572;28;20028;-62
2022/02/20 11:27:26;;;;;;;3.85;3.03;;;8.90;55.00;;;;;;5083528;28;20024;-62
2022/02/20 11:29:53;;;;;;;5.40;3.30;;;8.90;55.00;;;;;;5090474;28;20032;-62
2022/02/20 11:32:20;;;;;;;5.00;3.20;;;9.00;55.20;;;;;;5083998;28;20331;-62
2022/02/20 11:34:47;;;;;;;4.45;2.60;;;9.00;55.00;;;;;;5070798;28;20094;-62
2022/02/20 11:37:14;;;;;;;3.75;2.40;;;9.00;54.80;;;;;;5075383;28;20020;-62
2022/02/20 11:40:04;;;;;;;3.65;2.63;;;9.10;54.90;;;;;;5096235;28;20024;-62
2022/02/20 11:42:30;;;;;;;3.30;2.65;;;9.10;54.90;;;;;;5076334;28;20036;-62
2022/02/20 11:45:04;;;;;;;4.72;3.20;;;9.10;55.00;;;;;;5088673;28;20026;-62
2022/02/20 11:48:10;;;;;;;3.90;2.65;;;9.10;54.70;;;;;;5095275;28;20464;-62
2022/02/20 11:50:42;;;;;;;5.03;2.88;;;9.20;54.60;;;;;;5075496;28;20499;-62
2022/02/20 11:53:10;;;;;;;4.90;3.20;;;9.20;54.90;;;;;;5076298;28;20054;-62
2022/02/20 11:55:41;;;;;;;3.97;2.80;;;9.20;55.30;;;;;;5075814;28;20111;-62
2022/02/20 11:58:10;;;;;;;5.10;3.33;;;9.30;55.30;;;;;;5088753;28;20054;-62
2022/02/20 12:00:36;;;;;;;5.97;3.50;;;9.30;55.20;;;;;;5096124;28;20060;-62
2022/02/20 12:03:17;;;;;;;4.55;2.97;;;9.40;55.80;;;;;;5083101;28;20464;-62
2022/02/20 12:06:18;;;;;;;4.05;2.92;;;9.50;55.20;;;;;;5076089;28;20078;-62
2022/02/20 12:08:58;;;;;;;3.40;2.63;;;9.60;54.90;;;;;;5076284;28;20036;-62
2022/02/20 12:11:28;;;;;;;3.58;2.45;;;9.60;54.70;;;;;;5088878;28;20054;-62
2022/02/20 12:14:15;;;;;;;4.32;2.58;;;9.60;54.50;;;;;;5075508;28;20032;-62
2022/02/20 12:16:46;;;;;;;5.15;3.20;;;9.70;54.50;;;;;;5083302;28;20032;-62
2022/02/20 12:19:19;;;;;;;3.35;3.00;;;9.70;54.50;;;;;;5095905;28;20031;-63
2022/02/20 12:21:53;;;;;;;3.65;2.55;;;9.80;54.40;;;;;;5096212;28;20024;-62
2022/02/20 12:24:22;;;;;;;3.85;2.72;;;9.90;54.10;;;;;;5095769;28;20024;-62
2022/02/20 12:26:55;;;;;;;4.40;2.90;;;9.90;53.90;;;;;;5082259;28;20162;-62
2022/02/20 12:29:32;;;;;;;4.80;2.75;;;9.90;53.80;;;;;;5079447;28;20095;-62
2022/02/20 12:32:17;;;;;;;4.45;3.25;;;9.90;53.60;;;;;;5095719;28;20024;-62
2022/02/20 12:35:08;;;;;;;7.05;3.42;;;9.90;53.50;;;;;;5095542;28;20062;-62
2022/02/20 12:37:37;;;;;;;3.85;2.88;;;9.90;53.70;;;;;;5095223;28;20021;-62
2022/02/20 12:40:11;;;;;;;4.45;2.85;;;10.00;53.60;;;;;;5078268;28;20024;-62
2022/02/20 12:42:43;;;;;;;3.95;3.03;;;10.00;53.60;;;;;;5092374;28;20024;-62
2022/02/20 12:45:15;;;;;;;6.50;2.63;;;10.10;53.50;;;;;;5074944;28;20032;-62
2022/02/20 12:47:42;;;;;;;5.07;3.17;;;10.10;53.40;;;;;;5077580;28;20378;-62
2022/02/20 12:50:11;;;;;;;5.85;3.33;;;10.20;53.20;;;;;;5086637;28;20034;-62
2022/02/20 12:52:38;;;;;;;7.00;4.00;;;10.20;53.10;;;;;;5075075;28;20111;-62
2022/02/20 12:55:05;;;;;;;5.65;3.40;;;10.30;53.00;;;;;;5075100;28;20095;-62
2022/02/20 12:57:36;;;;;;;5.90;3.15;;;10.30;52.80;;;;;;5074929;28;20021;-62
2022/02/20 13:00:06;;;;;;;4.68;2.90;;;10.40;52.80;;;;;;5075420;28;20029;-62